• Join FlightAware (Why Join?)
  • Login
  • US Flag 
01:07PM EST


 

Airport Tracker/Info


-or-


 

Live Flight TrackerFlight Track Log ✈ ASH2770 ✈ 11-Nov-2013 ✈ KCLT - KCHS

Flight Track Log - Related Links

Times and Time Zones

All times are in EST time to prevent confusion due to time zone crossing. See the ASH2770 flight status page for this flight to view local times or setup timezone preferences in your user account.

Time Position Orientation Groundspeed Altitude Reporting Facility
EST Latitude Longitude Course Direction KTS MPH feet Rate Location/Type
07:49AM 35.2369 -80.9417 165° South 179 206 1,900  Level Atlanta Center
07:50AM 35.3022 -80.8806 37° Northeast 274 315 5,500 2,520 Climbing Atlanta Center
07:51AM 34.9835 -80.8563 180° South  Level Estimated
07:51AM 35.2933 -80.7817 96° East 300 345 7,900  Level Atlanta Center
07:51AM 35.2914 -80.7894 253° West 314 361 8,000 1,620 Climbing Atlanta Center
07:52AM 34.9030 -80.8636 184° South  Level FlightAware Approximate
07:52AM 35.2328 -80.7078 131° Southeast 308 354 9,800  Level Atlanta Center
07:53AM 34.8266 -80.8315 180° South  Level Estimated
07:53AM 35.1719 -80.6975 172° South 310 357 11,700  Level Atlanta Center
07:54AM 34.7502 -80.7994 165° South  Level Estimated
07:54AM 35.0772 -80.7444 202° Southwest 329 379 14,000  Level Atlanta Center
07:56AM 34.9061 -80.8117 198° South 346 398 18,000 2,340 Climbing Jacksonville Center
07:57AM 34.8131 -80.8544 201° Southwest 357 411 20,600 2,400 Climbing Jacksonville Center
07:58AM 34.7114 -80.8922 197° South 369 425 22,900 1,200 Climbing Jacksonville Center
07:59AM 34.5944 -80.8900 179° South 397 457 23,000  Climbing Jacksonville Center
08:00AM 34.4858 -80.8800 176° South 414 476 23,000  Level Jacksonville Center
08:01AM 34.3647 -80.8625 173° South 431 496 23,000  Level Jacksonville Center
08:02AM 34.2414 -80.8478 174° South 443 510 23,000 -360 Level Jacksonville Center
08:03AM 34.1242 -80.8281 172° South 443 510 22,300 -1,080 Descending Jacksonville Center
08:04AM 34.0069 -80.8133 174° South 437 503 20,900 -1,500 Descending Jacksonville Center
08:05AM 33.8942 -80.7958 173° South 430 495 19,300 -1,500 Descending Jacksonville Center
08:06AM 33.7811 -80.7811 174° South 417 480 17,900 -1,260 Descending Jacksonville Center
08:07AM 33.6725 -80.7664 174° South 406 467 16,800 -1,260 Descending Jacksonville Center
08:08AM 33.5678 -80.7514 173° South 392 451 15,400 -1,440 Descending Jacksonville Center
08:09AM 33.4611 -80.7389 174° South 387 445 14,000 -1,560 Descending Jacksonville Center
08:10AM 33.3419 -80.7219 173° South 394 453 12,300 -1,500 Descending Jacksonville Center
08:11AM 33.2453 -80.6772 159° South 374 430 11,000 -720 Descending Jacksonville Center
08:12AM 33.1953 -80.5717 119° Southeast 336 387 10,900 -420 Descending Jacksonville Center
08:13AM 33.1289 -80.4817 131° Southeast 348 400 10,200 -540 Descending Jacksonville Center
08:14AM 33.0625 -80.3917 131° Southeast 359 413 9,900 -300 Descending Jacksonville Center
08:15AM 33.0044 -80.3142 132° Southeast 329 379 9,600 -960 Descending Jacksonville Center
08:16AM 32.9486 -80.2389 131° Southeast 305 351 8,000 -1,800 Descending Jacksonville Center
08:17AM 32.8847 -80.1789 142° Southeast 300 345 6,000 -2,100 Descending Jacksonville Center
08:18AM 32.8233 -80.1314 147° Southeast 281 323 3,800 -2,220 Descending Jacksonville Center